Time;durP1;ratioP1;P1;durP2;ratioP2;P2;SDS_P1;SDS_P2;PMS_P1;PMS_P2;Temp;Humidity;BMP_temperature;BMP_pressure;BME280_temperature;BME280_humidity;BME280_pressure;Samples;Min_cycle;Max_cycle;Signal;HPM_P1;HPM_P2
2022/11/23 00:01:13;;;;;;;;;;;;;;;17.17;48.82;100062.72;4863256;29;1979;-51
2022/11/23 00:03:38;;;;;;;;;;;;;;;16.72;48.14;100057.47;4850513;29;1104;-49
2022/11/23 00:06:04;;;;;;;;;;;;;;;16.62;47.47;100052.09;4863437;29;1164;-51
2022/11/23 00:08:30;;;;;;;;;;;;;;;17.60;48.93;100056.38;4864194;29;1208;-50
2022/11/23 00:10:58;;;;;;;;;;;;;;;16.89;49.65;100054.28;4863621;29;1140;-50
2022/11/23 00:13:23;;;;;;;;;;;;;;;16.64;48.39;100051.81;4865686;29;1081;-49
2022/11/23 00:15:49;;;;;;;;;;;;;;;16.63;47.43;100050.16;4864814;29;1758;-51
2022/11/23 00:18:14;;;;;;;;;;;;;;;16.46;46.87;100050.63;4863299;29;1111;-49
2022/11/23 00:20:40;;;;;;;;;;;;;;;17.31;48.32;100049.06;4863155;29;1915;-48
2022/11/23 00:23:05;;;;;;;;;;;;;;;16.71;48.72;100058.56;4863564;29;1193;-51
2022/11/23 00:25:31;;;;;;;;;;;;;;;16.56;47.76;100050.50;4866049;29;1156;-50
2022/11/23 00:27:56;;;;;;;;;;;;;;;17.23;48.59;100047.78;4849232;29;1140;-50
2022/11/23 00:30:22;;;;;;;;;;;;;;;16.95;49.10;100040.50;4863588;29;1133;-53
2022/11/23 00:32:47;;;;;;;;;;;;;;;18.48;48.69;100047.47;4863428;29;1113;-53
2022/11/23 00:35:13;;;;;;;;;;;;;;;17.85;50.11;100052.41;4846207;29;1566;-51
2022/11/23 00:37:38;;;;;;;;;;;;;;;17.23;49.76;100046.97;4864647;29;1125;-53
2022/11/23 00:40:04;;;;;;;;;;;;;;;16.99;48.87;100042.34;4863243;29;1919;-53
2022/11/23 00:42:29;;;;;;;;;;;;;;;16.82;48.02;100033.75;4862595;29;1117;-52
2022/11/23 00:44:55;;;;;;;;;;;;;;;17.49;49.19;100030.13;4862212;29;1295;-52
2022/11/23 00:47:20;;;;;;;;;;;;;;;17.08;49.64;100032.34;4862815;29;2529;-51
2022/11/23 00:49:46;;;;;;;;;;;;;;;16.83;48.64;100024.38;4846673;29;1224;-50
2022/11/23 00:52:11;;;;;;;;;;;;;;;17.40;49.38;100021.72;4846617;29;1240;-52
2022/11/23 00:54:36;;;;;;;;;;;;;;;17.12;49.68;100034.50;4864590;29;1156;-53
2022/11/23 00:57:02;;;;;;;;;;;;;;;16.80;48.64;100022.22;4867157;29;1144;-53
2022/11/23 00:59:28;;;;;;;;;;;;;;;16.73;48.27;100011.59;4850048;29;1990;-52
2022/11/23 01:01:53;;;;;;;;;;;;;;;17.41;49.57;100015.94;4870967;29;1105;-51
2022/11/23 01:04:19;;;;;;;;;;;;;;;16.86;49.16;100013.66;4874697;29;1143;-53
2022/11/23 01:06:44;;;;;;;;;;;;;;;16.74;48.40;100008.56;4866361;29;1120;-53
2022/11/23 01:09:16;;;;;;;;;;;;;;;17.15;48.91;99998.19;4849674;29;1144;-53
2022/11/23 01:11:42;;;;;;;;;;;;;;;17.05;49.12;99985.41;4866511;29;1156;-52
2022/11/23 01:14:07;;;;;;;;;;;;;;;16.67;48.49;99977.91;4867287;29;1112;-52
2022/11/23 01:16:34;;;;;;;;;;;;;;;17.56;49.23;99975.59;4849738;29;1790;-50
2022/11/23 01:19:00;;;;;;;;;;;;;;;16.87;49.16;99971.34;4849534;29;1554;-52
2022/11/23 01:21:26;;;;;;;;;;;;;;;16.74;48.09;99970.13;4866062;29;1899;-53
2022/11/23 01:23:51;;;;;;;;;;;;;;;17.38;49.19;99967.06;4865825;29;1101;-53
2022/11/23 01:26:17;;;;;;;;;;;;;;;16.84;49.06;99954.63;4872462;29;1152;-51
2022/11/23 01:28:42;;;;;;;;;;;;;;;16.67;48.10;99961.44;4873383;29;1124;-50
2022/11/23 01:31:09;;;;;;;;;;;;;;;16.57;47.40;99965.13;4866454;29;1009;-50
2022/11/23 01:33:35;;;;;;;;;;;;;;;17.13;49.17;99975.72;4865995;29;1104;-51
2022/11/23 01:36:08;;;;;;;;;;;;;;;16.72;48.73;99983.34;4848913;29;1167;-48
2022/11/23 01:38:34;;;;;;;;;;;;;;;16.62;47.87;99978.00;4856625;29;1094;-48
2022/11/23 01:40:59;;;;;;;;;;;;;;;17.08;48.24;99963.69;4869807;29;1993;-51
2022/11/23 01:43:25;;;;;;;;;;;;;;;17.06;48.72;99963.16;4849314;29;1243;-50
2022/11/23 01:45:57;;;;;;;;;;;;;;;16.75;48.27;99960.78;4865700;29;2341;-51
2022/11/23 01:48:27;;;;;;;;;;;;;;;16.50;47.72;99958.38;4836613;29;1082;-53
2022/11/23 01:50:52;;;;;;;;;;;;;;;17.06;48.97;99959.59;4874200;29;1136;-50
2022/11/23 01:53:18;;;;;;;;;;;;;;;16.67;48.19;99949.66;4866731;29;1218;-52
2022/11/23 01:55:44;;;;;;;;;;;;;;;17.27;48.89;99949.13;4849212;29;1089;-52
2022/11/23 01:58:11;;;;;;;;;;;;;;;16.94;49.04;99940.78;4849387;29;1140;-51
2022/11/23 02:00:36;;;;;;;;;;;;;;;16.90;48.97;99945.25;4848884;29;1903;-51
2022/11/23 02:03:02;;;;;;;;;;;;;;;17.92;48.82;99936.50;4857490;29;1324;-50
2022/11/23 02:05:32;;;;;;;;;;;;;;;16.99;49.57;99932.50;4865380;29;1136;-52
2022/11/23 02:07:58;;;;;;;;;;;;;;;16.86;48.49;99916.72;4866069;29;1140;-52
2022/11/23 02:10:23;;;;;;;;;;;;;;;16.69;47.84;99918.06;4848870;29;1136;-52
2022/11/23 02:12:49;;;;;;;;;;;;;;;17.72;48.94;99910.16;4865257;29;1089;-51
2022/11/23 02:15:14;;;;;;;;;;;;;;;17.08;49.46;99900.50;4858773;29;1120;-51
2022/11/23 02:17:40;;;;;;;;;;;;;;;16.79;48.89;99905.28;4878410;29;1770;-52
2022/11/23 02:20:13;;;;;;;;;;;;;;;16.67;47.90;99901.03;4865275;29;1916;-51
2022/11/23 02:22:38;;;;;;;;;;;;;;;17.67;48.63;99891.84;4849110;29;1164;-51
2022/11/23 02:25:06;;;;;;;;;;;;;;;16.90;48.71;99885.66;4851976;29;1138;-50
2022/11/23 02:27:32;;;;;;;;;;;;;;;16.72;48.23;99879.03;4857560;29;1452;-50
2022/11/23 02:29:57;;;;;;;;;;;;;;;16.57;47.62;99877.31;4848976;29;1123;-48
2022/11/23 02:32:23;;;;;;;;;;;;;;;17.20;48.49;99877.25;4848290;29;1223;-52
2022/11/23 02:34:48;;;;;;;;;;;;;;;17.00;49.10;99881.13;4865100;29;1128;-47
2022/11/23 02:37:14;;;;;;;;;;;;;;;16.67;48.46;99886.50;4865467;29;1152;-51
2022/11/23 02:39:40;;;;;;;;;;;;;;;16.52;47.95;99868.31;4855998;29;1908;-50
2022/11/23 02:42:05;;;;;;;;;;;;;;;16.40;47.14;99872.31;4864489;29;1136;-50
2022/11/23 02:44:45;;;;;;;;;;;;;;;17.04;48.10;99863.75;4865128;29;1132;-51
2022/11/23 02:47:12;;;;;;;;;;;;;;;16.88;49.24;99876.06;4848822;29;2604;-51
2022/11/23 02:49:38;;;;;;;;;;;;;;;16.55;48.61;99862.22;4864842;29;1073;-50
2022/11/23 02:52:04;;;;;;;;;;;;;;;17.38;48.65;99868.13;4854316;29;1334;-50
2022/11/23 02:54:29;;;;;;;;;;;;;;;16.73;48.76;99861.44;4864568;29;1132;-49
2022/11/23 02:56:56;;;;;;;;;;;;;;;17.88;48.80;99861.19;4847759;29;1421;-48
2022/11/23 02:59:21;;;;;;;;;;;;;;;17.79;49.79;99856.41;4864967;29;1175;-53
2022/11/23 03:01:49;;;;;;;;;;;;;;;17.13;49.51;99854.84;4847502;29;1293;-52
2022/11/23 03:04:14;;;;;;;;;;;;;;;16.93;48.54;99860.34;4869101;29;962;-49
2022/11/23 03:06:40;;;;;;;;;;;;;;;17.65;49.61;99855.56;4864628;29;1140;-52
2022/11/23 03:09:06;;;;;;;;;;;;;;;17.07;49.66;99849.41;4847662;29;1139;-52
2022/11/23 03:11:32;;;;;;;;;;;;;;;16.70;48.81;99848.28;4847714;29;1363;-51
2022/11/23 03:13:57;;;;;;;;;;;;;;;16.62;48.05;99848.97;4846986;29;1113;-52
2022/11/23 03:16:23;;;;;;;;;;;;;;;17.30;49.08;99838.59;4854913;29;1786;-53
2022/11/23 03:18:49;;;;;;;;;;;;;;;16.72;48.72;99826.88;4852360;29;1092;-49
2022/11/23 03:21:14;;;;;;;;;;;;;;;16.56;48.02;99825.44;4847727;29;1919;-49
2022/11/23 03:23:39;;;;;;;;;;;;;;;17.55;48.71;99825.53;4846748;29;1121;-49
2022/11/23 03:26:08;;;;;;;;;;;;;;;16.80;48.95;99822.63;4847685;29;1183;-46
2022/11/23 03:28:40;;;;;;;;;;;;;;;16.64;48.01;99822.03;4870162;29;922;-51
2022/11/23 03:31:05;;;;;;;;;;;;;;;17.37;48.50;99811.53;4847338;29;1179;-49
2022/11/23 03:33:31;;;;;;;;;;;;;;;16.77;48.69;99813.06;4846933;29;1172;-47
2022/11/23 03:35:57;;;;;;;;;;;;;;;16.59;48.29;99806.47;4847371;29;1301;-47
2022/11/23 03:38:27;;;;;;;;;;;;;;;17.54;48.54;99799.16;4847950;29;1144;-51
2022/11/23 03:40:52;;;;;;;;;;;;;;;16.82;49.04;99811.38;4851234;29;1978;-51
2022/11/23 03:43:22;;;;;;;;;;;;;;;16.72;47.87;99804.09;4847082;29;1354;-51
2022/11/23 03:45:47;;;;;;;;;;;;;;;16.51;47.47;99809.06;4850488;29;2474;-49
2022/11/23 03:48:13;;;;;;;;;;;;;;;17.43;48.43;99806.75;4864737;29;1226;-50
2022/11/23 03:50:38;;;;;;;;;;;;;;;16.81;48.86;99798.75;4846767;29;2383;-51
2022/11/23 03:53:05;;;;;;;;;;;;;;;16.56;48.02;99792.53;4849924;29;1124;-50
2022/11/23 03:55:32;;;;;;;;;;;;;;;17.68;48.73;99788.97;4863220;29;1125;-49
2022/11/23 03:58:00;;;;;;;;;;;;;;;16.94;48.93;99781.50;4847099;29;1163;-51
2022/11/23 04:00:29;;;;;;;;;;;;;;;16.67;48.25;99783.00;4846802;29;1919;-49
2022/11/23 04:02:54;;;;;;;;;;;;;;;17.30;48.92;99782.84;4846687;29;1210;-49
2022/11/23 04:05:45;;;;;;;;;;;;;;;16.74;48.67;99780.69;4852899;29;1034;-47
2022/11/23 04:08:43;;;;;;;;;;;;;;;17.51;48.59;99786.03;4863506;29;1110;-46
2022/11/23 04:11:14;;;;;;;;;;;;;;;16.80;48.81;99780.63;4846914;29;1501;-51
2022/11/23 04:13:42;;;;;;;;;;;;;;;17.01;48.80;99778.38;4846422;29;1149;-48
2022/11/23 04:16:08;;;;;;;;;;;;;;;17.27;49.37;99778.75;4856353;29;2151;-49
2022/11/23 04:18:35;;;;;;;;;;;;;;;16.75;49.18;99776.84;4853230;29;1205;-46
2022/11/23 04:21:00;;;;;;;;;;;;;;;16.72;47.80;99782.94;4847065;29;1914;-51
2022/11/23 04:23:26;;;;;;;;;;;;;;;17.56;48.55;99770.25;4846427;29;1433;-49
2022/11/23 04:25:52;;;;;;;;;;;;;;;16.79;49.02;99781.72;4845690;29;1398;-48
2022/11/23 04:28:18;;;;;;;;;;;;;;;16.70;48.71;99776.91;4848812;29;1346;-49
2022/11/23 04:30:46;;;;;;;;;;;;;;;17.39;49.17;99781.84;4863141;29;1129;-46
2022/11/23 04:33:12;;;;;;;;;;;;;;;16.84;49.14;99781.66;4863232;29;1199;-48
2022/11/23 04:35:37;;;;;;;;;;;;;;;16.70;48.24;99779.66;4846490;29;1131;-52
2022/11/23 04:38:03;;;;;;;;;;;;;;;16.66;47.68;99770.44;4863247;29;1152;-48
2022/11/23 04:40:30;;;;;;;;;;;;;;;17.12;49.33;99765.31;4846486;29;1919;-48
2022/11/23 04:42:59;;;;;;;;;;;;;;;16.75;48.54;99774.09;4846567;29;1341;-49
2022/11/23 04:45:25;;;;;;;;;;;;;;;16.53;47.70;99766.47;4845916;29;2418;-48
2022/11/23 04:47:52;;;;;;;;;;;;;;;17.48;48.54;99781.94;4846111;29;1405;-47
2022/11/23 04:50:18;;;;;;;;;;;;;;;16.83;49.27;99780.03;4846906;29;1278;-52
2022/11/23 04:52:49;;;;;;;;;;;;;;;17.16;49.42;99782.81;4858486;29;1207;-49
2022/11/23 04:55:19;;;;;;;;;;;;;;;17.50;49.51;99776.16;4845158;29;1414;-49
2022/11/23 04:57:53;;;;;;;;;;;;;;;16.94;49.20;99765.03;4846429;29;1345;-47
2022/11/23 05:00:19;;;;;;;;;;;;;;;16.73;48.35;99770.84;4846577;29;1915;-49
2022/11/23 05:02:45;;;;;;;;;;;;;;;16.56;47.39;99765.06;4862858;29;1062;-45
2022/11/23 05:05:19;;;;;;;;;;;;;;;17.21;49.09;99758.81;4856174;29;2027;-45
2022/11/23 05:07:44;;;;;;;;;;;;;;;16.76;48.68;99764.75;4846525;29;1347;-47
2022/11/23 05:10:10;;;;;;;;;;;;;;;16.51;48.00;99757.75;4845852;29;1154;-44
2022/11/23 05:12:36;;;;;;;;;;;;;;;17.39;48.98;99754.34;4846414;29;1152;-43
2022/11/23 05:15:02;;;;;;;;;;;;;;;16.70;48.93;99754.97;4862203;29;1133;-48
2022/11/23 05:17:33;;;;;;;;;;;;;;;16.61;47.99;99745.78;4846172;29;1814;-45
2022/11/23 05:19:59;;;;;;;;;;;;;;;17.69;48.59;99754.88;4846022;29;1907;-48
2022/11/23 05:22:27;;;;;;;;;;;;;;;16.93;49.03;99753.25;4846200;29;1275;-49
2022/11/23 05:24:53;;;;;;;;;;;;;;;17.85;48.87;99757.31;4844408;29;1247;-46
2022/11/23 05:27:21;;;;;;;;;;;;;;;17.78;49.69;99746.72;4846099;29;1308;-45
2022/11/23 05:29:47;;;;;;;;;;;;;;;17.05;49.41;99746.47;4848441;29;1147;-48
2022/11/23 05:32:12;;;;;;;;;;;;;;;16.90;48.40;99744.78;4845811;29;1208;-48
2022/11/23 05:34:38;;;;;;;;;;;;;;;16.75;47.85;99751.34;4862182;29;1266;-46
2022/11/23 05:37:04;;;;;;;;;;;;;;;16.54;47.22;99756.34;4845679;29;1364;-49
2022/11/23 05:39:30;;;;;;;;;;;;;;;16.45;46.71;99753.44;4845669;29;1903;-50
2022/11/23 05:41:57;;;;;;;;;;;;;;;17.04;48.43;99737.41;4851506;29;1262;-50
2022/11/23 05:44:34;;;;;;;;;;;;;;;16.69;48.39;99741.53;4849150;29;1255;-44
2022/11/23 05:46:59;;;;;;;;;;;;;;;18.30;48.96;99743.72;4865430;29;2334;-45
2022/11/23 05:49:28;;;;;;;;;;;;;;;17.24;49.71;99741.72;4849517;29;1168;-48
2022/11/23 05:51:53;;;;;;;;;;;;;;;16.87;48.85;99739.88;4868324;29;1140;-45
2022/11/23 05:54:19;;;;;;;;;;;;;;;16.75;48.04;99743.09;4865606;29;1076;-48
2022/11/23 05:56:54;;;;;;;;;;;;;;;16.60;47.41;99735.91;4849302;29;1065;-47
2022/11/23 05:59:23;;;;;;;;;;;;;;;16.53;46.72;99746.47;4848943;29;1377;-50
2022/11/23 06:01:56;;;;;;;;;;;;;;;17.14;48.94;99738.34;4849227;29;1405;-45
2022/11/23 06:04:27;;;;;;;;;;;;;;;16.66;48.62;99732.00;4850109;29;1200;-45
2022/11/23 06:06:57;;;;;;;;;;;;;;;16.52;47.51;99734.69;4848722;29;1361;-48
2022/11/23 06:09:23;;;;;;;;;;;;;;;17.28;48.04;99736.44;4847927;29;1144;-47
2022/11/23 06:11:51;;;;;;;;;;;;;;;16.98;49.09;99733.13;4848985;29;1440;-48
2022/11/23 06:14:18;;;;;;;;;;;;;;;16.71;48.31;99725.59;4848379;29;1406;-47
2022/11/23 06:16:45;;;;;;;;;;;;;;;16.54;47.79;99734.38;4850688;29;2368;-48
2022/11/23 06:19:28;;;;;;;;;;;;;;;17.58;48.46;99726.75;4848100;29;2227;-47
2022/11/23 06:21:56;;;;;;;;;;;;;;;16.80;49.24;99739.44;4848703;29;1338;-44
2022/11/23 06:24:24;;;;;;;;;;;;;;;16.60;47.94;99731.22;4847895;29;1239;-47
2022/11/23 06:27:10;;;;;;;;;;;;;;;17.16;48.51;99738.84;4865067;29;1190;-49
2022/11/23 06:29:35;;;;;;;;;;;;;;;16.82;48.86;99729.81;4855168;29;1330;-47
2022/11/23 06:32:01;;;;;;;;;;;;;;;17.74;47.64;99731.94;4865426;29;1187;-47
2022/11/23 06:34:27;;;;;;;;;;;;;;;17.12;49.31;99733.16;4848782;29;1204;-45
2022/11/23 06:36:52;;;;;;;;;;;;;;;16.84;50.37;99724.81;4848367;29;1221;-46
2022/11/23 06:39:17;;;;;;;;;;;;;;;16.68;50.73;99724.25;4847832;29;1184;-44
2022/11/23 06:41:44;;;;;;;;;;;;;;;16.55;51.15;99725.84;4853677;29;1915;-47
2022/11/23 06:44:10;;;;;;;;;;;;;;;16.45;51.31;99725.19;4848015;29;1334;-45
2022/11/23 06:46:39;;;;;;;;;;;;;;;16.31;51.95;99725.94;4848217;29;2182;-43
2022/11/23 06:49:06;;;;;;;;;;;;;;;16.17;52.32;99714.91;4848376;29;1176;-44
2022/11/23 06:51:31;;;;;;;;;;;;;;;16.09;52.63;99723.81;4847605;29;1239;-48
2022/11/23 06:53:57;;;;;;;;;;;;;;;16.04;52.57;99713.69;4864093;29;891;-48
2022/11/23 06:56:23;;;;;;;;;;;;;;;15.94;52.74;99716.59;4848471;29;1122;-47
2022/11/23 06:58:49;;;;;;;;;;;;;;;17.38;49.80;99719.75;4848323;29;1211;-49
2022/11/23 07:01:19;;;;;;;;;;;;;;;16.56;51.73;99710.19;4848248;29;1915;-45
2022/11/23 07:03:52;;;;;;;;;;;;;;;16.28;52.41;99709.25;4848021;29;1267;-49
2022/11/23 07:06:27;;;;;;;;;;;;;;;16.04;53.17;99710.97;4848289;29;1160;-49
2022/11/23 07:08:56;;;;;;;;;;;;;;;16.04;53.46;99716.44;4859665;29;1172;-48
2022/11/23 07:11:32;;;;;;;;;;;;;;;17.28;50.42;99707.03;4847463;29;2368;-45
2022/11/23 07:13:58;;;;;;;;;;;;;;;16.49;52.63;99712.50;4846528;29;1228;-51
2022/11/23 07:16:26;;;;;;;;;;;;;;;16.23;53.32;99710.16;4847276;29;1781;-48
2022/11/23 07:18:52;;;;;;;;;;;;;;;16.08;53.44;99712.00;4848006;29;1260;-47
2022/11/23 07:21:18;;;;;;;;;;;;;;;15.99;53.61;99702.81;4847589;29;1993;-47
2022/11/23 07:23:44;;;;;;;;;;;;;;;16.85;52.13;99709.16;4846952;29;1310;-46
2022/11/23 07:26:10;;;;;;;;;;;;;;;17.08;51.62;99705.47;4863440;29;1236;-46
2022/11/23 07:28:35;;;;;;;;;;;;;;;16.43;53.41;99704.34;4834974;29;1858;-50
2022/11/23 07:31:01;;;;;;;;;;;;;;;16.21;53.63;99706.88;4846723;29;1160;-44
2022/11/23 07:33:27;;;;;;;;;;;;;;;16.07;54.07;99710.38;4847343;29;1393;-44
2022/11/23 07:35:53;;;;;;;;;;;;;;;15.96;54.07;99713.56;4863118;29;1275;-43
2022/11/23 07:38:19;;;;;;;;;;;;;;;16.72;52.74;99714.31;4846727;29;1351;-45
2022/11/23 07:40:47;;;;;;;;;;;;;;;17.03;51.69;99713.81;4846612;29;1919;-41
2022/11/23 07:43:23;;;;;;;;;;;;;;;16.36;53.87;99711.34;4846938;29;1282;-49
2022/11/23 07:45:48;;;;;;;;;;;;;;;16.14;54.41;99710.00;4862897;29;1932;-46
2022/11/23 07:48:15;;;;;;;;;;;;;;;16.94;52.54;99710.13;4846391;29;1291;-45
2022/11/23 07:50:41;;;;;;;;;;;;;;;16.96;52.22;99718.88;4863166;29;1252;-46
2022/11/23 07:53:06;;;;;;;;;;;;;;;16.40;53.98;99713.19;4862915;29;1228;-46
2022/11/23 07:55:32;;;;;;;;;;;;;;;16.18;54.19;99710.22;4863831;29;1187;-44
2022/11/23 07:57:58;;;;;;;;;;;;;;;16.04;54.24;99705.47;4863444;29;1177;-47
2022/11/23 08:00:23;;;;;;;;;;;;;;;17.21;52.01;99708.56;4863090;29;1970;-46
2022/11/23 08:02:49;;;;;;;;;;;;;;;16.80;52.92;99710.06;4862785;29;1236;-45
2022/11/23 08:05:15;;;;;;;;;;;;;;;16.36;54.07;99705.84;4862367;29;1224;-46
2022/11/23 08:07:40;;;;;;;;;;;;;;;16.16;54.45;99709.69;4869984;29;1013;-42
2022/11/23 08:10:06;;;;;;;;;;;;;;;17.54;51.18;99708.44;4869497;29;1092;-46
2022/11/23 08:12:31;;;;;;;;;;;;;;;16.70;53.25;99700.06;4863573;29;1176;-43
2022/11/23 08:14:56;;;;;;;;;;;;;;;16.40;54.03;99696.72;4863024;29;1143;-46
2022/11/23 08:17:22;;;;;;;;;;;;;;;16.22;54.14;99700.28;4863374;29;1900;-45
2022/11/23 08:19:47;;;;;;;;;;;;;;;16.04;54.67;99699.19;4863226;29;1906;-46
2022/11/23 08:22:13;;;;;;;;;;;;;;;16.93;53.04;99698.34;4862070;29;1390;-47
2022/11/23 08:24:38;;;;;;;;;;;;;;;17.07;52.26;99698.34;4862832;29;1277;-43
2022/11/23 08:27:04;;;;;;;;;;;;;;;16.48;53.81;99695.22;4863295;29;1172;-43
2022/11/23 08:29:29;;;;;;;;;;;;;;;16.22;54.33;99678.34;4863350;29;1116;-42
2022/11/23 08:31:55;;;;;;;;;;;;;;;16.10;54.74;99687.00;4862666;29;1124;-43
2022/11/23 08:34:20;;;;;;;;;;;;;;;16.08;54.93;99690.06;4857396;29;1046;-43
2022/11/23 08:36:47;;;;;;;;;;;;;;;17.56;51.36;99681.47;4862980;29;1148;-42
2022/11/23 08:39:13;;;;;;;;;;;;;;;16.67;53.67;99689.69;4863235;29;1132;-45
2022/11/23 08:41:39;;;;;;;;;;;;;;;16.35;54.58;99682.25;4862607;29;1971;-44
2022/11/23 08:44:07;;;;;;;;;;;;;;;16.13;54.82;99685.63;4863328;29;1120;-44
2022/11/23 08:46:32;;;;;;;;;;;;;;;15.99;55.04;99678.16;4863029;29;1924;-46
2022/11/23 08:48:58;;;;;;;;;;;;;;;16.62;54.21;99675.25;4863061;29;1512;-44
2022/11/23 08:51:23;;;;;;;;;;;;;;;17.43;52.01;99683.09;4863367;29;879;-43
2022/11/23 08:53:48;;;;;;;;;;;;;;;16.56;54.19;99677.25;4862198;29;1180;-46
2022/11/23 08:56:14;;;;;;;;;;;;;;;16.28;54.82;99676.34;4863764;29;1172;-45
2022/11/23 08:58:40;;;;;;;;;;;;;;;16.10;55.10;99673.31;4863043;29;1112;-47
2022/11/23 09:01:08;;;;;;;;;;;;;;;16.64;54.04;99678.50;4862636;29;1911;-44
2022/11/23 09:03:34;;;;;;;;;;;;;;;17.09;52.94;99670.59;4862903;29;1148;-46
2022/11/23 09:06:00;;;;;;;;;;;;;;;16.46;54.50;99671.94;4862654;29;1184;-44
2022/11/23 09:08:25;;;;;;;;;;;;;;;16.23;54.63;99669.03;4875926;29;1137;-42
2022/11/23 09:10:51;;;;;;;;;;;;;;;16.57;54.28;99668.72;4863832;29;1196;-47
2022/11/23 09:13:16;;;;;;;;;;;;;;;17.02;53.23;99662.72;4862555;29;1088;-46
2022/11/23 09:15:41;;;;;;;;;;;;;;;16.44;54.49;99666.75;4865052;29;1872;-46
2022/11/23 09:18:08;;;;;;;;;;;;;;;16.20;54.94;99655.88;4866859;29;1180;-49
2022/11/23 09:20:33;;;;;;;;;;;;;;;16.06;54.92;99664.88;4867115;29;1923;-49
2022/11/23 09:22:59;;;;;;;;;;;;;;;17.49;52.20;99659.06;4866527;29;1169;-48
2022/11/23 09:25:24;;;;;;;;;;;;;;;16.74;53.88;99648.94;4866441;29;1049;-42
2022/11/23 09:27:55;;;;;;;;;;;;;;;16.39;54.80;99653.91;4866654;29;1184;-41
2022/11/23 09:30:20;;;;;;;;;;;;;;;16.16;55.10;99649.34;4874616;29;1073;-47
2022/11/23 09:32:46;;;;;;;;;;;;;;;16.63;54.42;99650.22;4868155;29;1132;-48
2022/11/23 09:35:11;;;;;;;;;;;;;;;17.09;53.10;99643.91;4865686;29;1132;-44
2022/11/23 09:37:37;;;;;;;;;;;;;;;16.51;54.46;99644.41;4866454;29;1144;-45
2022/11/23 09:40:02;;;;;;;;;;;;;;;16.19;55.10;99633.13;4866958;29;1915;-43
2022/11/23 09:42:47;;;;;;;;;;;;;;;16.84;53.85;99641.63;4867061;29;1100;-44
2022/11/23 09:45:15;;;;;;;;;;;;;;;17.07;53.23;99632.44;4854773;29;934;-44
2022/11/23 09:47:41;;;;;;;;;;;;;;;16.50;54.50;99634.56;4866143;29;2182;-48
2022/11/23 09:50:06;;;;;;;;;;;;;;;16.29;55.09;99634.09;4866187;29;1104;-45
2022/11/23 09:52:32;;;;;;;;;;;;;;;16.10;55.34;99625.88;4865745;29;1156;-43
2022/11/23 09:54:59;;;;;;;;;;;;;;;16.70;54.31;99627.88;4864666;29;1184;-46
2022/11/23 09:57:26;;;;;;;;;;;;;;;17.20;53.15;99630.00;4877087;29;1085;-49
2022/11/23 09:59:53;;;;;;;;;;;;;;;16.50;54.86;99629.06;4867932;29;1915;-44
2022/11/23 10:02:20;;;;;;;;;;;;;;;16.24;55.20;99633.06;4865573;29;1160;-42
2022/11/23 10:04:45;;;;;;;;;;;;;;;16.08;55.34;99635.22;4865568;29;1057;-44
2022/11/23 10:07:16;;;;;;;;;;;;;;;17.42;52.59;99632.03;4868163;29;969;-44
2022/11/23 10:09:46;;;;;;;;;;;;;;;16.76;54.19;99627.50;4875429;29;1099;-45
2022/11/23 10:12:30;;;;;;;;;;;;;;;16.33;55.00;99624.97;4849764;29;1191;-48
2022/11/23 10:15:07;;;;;;;;;;;;;;;16.18;55.25;99627.94;4865816;29;1033;-46
2022/11/23 10:17:49;;;;;;;;;;;;;;;17.27;53.05;99624.91;4866064;29;1738;-50
2022/11/23 10:20:33;;;;;;;;;;;;;;;16.90;53.94;99621.22;4865506;29;1982;-45
2022/11/23 10:22:59;;;;;;;;;;;;;;;16.39;55.22;99618.25;4858299;29;1149;-49
2022/11/23 10:25:25;;;;;;;;;;;;;;;16.19;55.18;99618.63;4865121;29;1167;-45
2022/11/23 10:27:53;;;;;;;;;;;;;;;16.11;55.44;99611.88;4848415;29;1114;-45
2022/11/23 10:30:19;;;;;;;;;;;;;;;17.51;52.72;99607.38;4865948;29;1196;-47
2022/11/23 10:32:50;;;;;;;;;;;;;;;16.76;54.49;99621.22;4865448;29;1188;-42
2022/11/23 10:35:31;;;;;;;;;;;;;;;16.37;55.22;99606.78;4864956;29;1140;-42
2022/11/23 10:38:16;;;;;;;;;;;;;;;16.13;55.44;99598.69;4864613;29;1062;-46
2022/11/23 10:40:56;;;;;;;;;;;;;;;16.06;55.59;99604.53;4865080;29;1907;-46
2022/11/23 10:43:22;;;;;;;;;;;;;;;17.64;52.16;99594.72;4864853;29;1001;-44
2022/11/23 10:45:47;;;;;;;;;;;;;;;16.74;54.47;99602.25;4848278;29;1799;-48
2022/11/23 10:48:13;;;;;;;;;;;;;;;16.38;55.05;99593.88;4865251;29;1077;-46
2022/11/23 10:50:39;;;;;;;;;;;;;;;16.17;55.69;99593.41;4848672;29;1121;-43
2022/11/23 10:53:05;;;;;;;;;;;;;;;16.21;55.83;99594.44;4865081;29;1120;-47
2022/11/23 10:55:47;;;;;;;;;;;;;;;17.54;52.84;99584.75;4864638;29;1227;-48
2022/11/23 10:58:33;;;;;;;;;;;;;;;16.62;55.03;99584.66;4864895;29;1180;-44
2022/11/23 11:01:03;;;;;;;;;;;;;;;16.28;55.25;99578.41;4865043;29;1965;-48
2022/11/23 11:03:29;;;;;;;;;;;;;;;16.13;55.50;99575.91;4864449;29;1168;-50
2022/11/23 11:05:55;;;;;;;;;;;;;;;15.95;55.53;99563.88;4864259;29;1215;-49
2022/11/23 11:08:20;;;;;;;;;;;;;;;16.98;54.35;99562.84;4865166;29;1572;-49
2022/11/23 11:10:48;;;;;;;;;;;;;;;17.12;53.76;99573.03;4864938;29;1183;-50
2022/11/23 11:13:23;;;;;;;;;;;;;;;16.46;55.25;99564.94;4864416;29;1077;-45
2022/11/23 11:15:55;;;;;;;;;;;;;;;16.24;55.35;99560.91;4863201;29;1911;-42
2022/11/23 11:18:22;;;;;;;;;;;;;;;16.35;55.64;99554.13;4864035;29;1179;-45
2022/11/23 11:20:48;;;;;;;;;;;;;;;17.28;53.35;99550.41;4851986;29;1907;-47
2022/11/23 11:23:17;;;;;;;;;;;;;;;16.55;55.35;99549.38;4846802;29;1255;-43
2022/11/23 11:25:42;;;;;;;;;;;;;;;16.26;55.51;99558.69;4863639;29;1258;-46
2022/11/23 11:28:34;;;;;;;;;;;;;;;16.10;55.85;99555.38;4846470;29;1180;-44
2022/11/23 11:31:18;;;;;;;;;;;;;;;17.29;53.78;99553.97;4850542;29;1636;-46
2022/11/23 11:33:52;;;;;;;;;;;;;;;16.70;54.91;99549.09;4863051;29;1215;-45
2022/11/23 11:36:17;;;;;;;;;;;;;;;16.33;55.81;99548.13;4862999;29;1101;-46
2022/11/23 11:38:45;;;;;;;;;;;;;;;16.06;56.15;99538.75;4862549;29;1093;-47
2022/11/23 11:41:10;;;;;;;;;;;;;;;16.02;55.95;99545.09;4847157;29;1911;-43
2022/11/23 11:43:46;;;;;;;;;;;;;;;16.62;55.43;99560.81;4846056;29;1256;-49
2022/11/23 11:46:15;;;;;;;;;;;;;;;17.18;53.94;99564.38;4842994;29;2071;-44
2022/11/23 11:48:45;;;;;;;;;;;;;;;16.45;55.82;99560.56;4863089;29;1120;-46
2022/11/23 11:51:19;;;;;;;;;;;;;;;16.20;55.87;99552.50;4863515;29;1420;-47
2022/11/23 11:53:48;;;;;;;;;;;;;;;16.05;55.85;99553.56;4846810;29;1085;-46
2022/11/23 11:56:32;;;;;;;;;;;;;;;15.94;55.83;99552.09;4846807;29;911;-49
2022/11/23 11:59:11;;;;;;;;;;;;;;;17.32;54.18;99550.63;4863286;29;1109;-51
2022/11/23 12:01:38;;;;;;;;;;;;;;;16.70;55.38;99551.84;4846781;29;1923;-46
2022/11/23 12:04:10;;;;;;;;;;;;;;;16.30;56.01;99551.50;4862089;29;1073;-48
2022/11/23 12:06:37;;;;;;;;;;;;;;;16.13;56.21;99559.47;4863185;29;1141;-48
2022/11/23 12:09:06;;;;;;;;;;;;;;;16.73;55.67;99564.97;4863035;29;1187;-45
2022/11/23 12:11:31;;;;;;;;;;;;;;;17.17;54.32;99561.94;4846047;29;1062;-46
2022/11/23 12:14:00;;;;;;;;;;;;;;;16.50;56.03;99564.03;4862212;29;1252;-49
2022/11/23 12:16:52;;;;;;;;;;;;;;;16.25;56.27;99579.81;4862979;29;1825;-49
2022/11/23 12:19:18;;;;;;;;;;;;;;;16.80;55.64;99572.78;4857087;29;1503;-49
2022/11/23 12:22:02;;;;;;;;;;;;;;;16.98;54.81;99576.59;4846063;29;1911;-48
2022/11/23 12:24:43;;;;;;;;;;;;;;;16.41;56.06;99577.63;4820942;29;1237179;-46
2022/11/23 12:27:18;;;;;;;;;;;;;;;16.18;55.97;99573.09;4862839;29;1216;-47
2022/11/23 12:29:54;;;;;;;;;;;;;;;16.01;56.38;99568.97;4863061;29;1256;-48
2022/11/23 12:32:25;;;;;;;;;;;;;;;17.18;54.96;99571.78;4847123;29;1219;-47
2022/11/23 12:34:57;;;;;;;;;;;;;;;16.86;55.30;99576.28;4861990;29;1259;-48
2022/11/23 12:37:25;;;;;;;;;;;;;;;16.40;56.04;99577.94;4862890;29;1582;-48
2022/11/23 12:40:11;;;;;;;;;;;;;;;16.20;56.10;99584.56;4862516;29;1895;-47
2022/11/23 12:42:57;;;;;;;;;;;;;;;16.07;56.48;99570.53;4846777;29;1169;-43
2022/11/23 12:45:40;;;;;;;;;;;;;;;17.38;54.01;99579.59;4851615;29;1919;-47
2022/11/23 12:48:24;;;;;;;;;;;;;;;16.49;55.90;99584.34;4845283;29;1248;-43
2022/11/23 12:50:54;;;;;;;;;;;;;;;16.20;56.19;99598.28;4861188;29;1203;-46
2022/11/23 12:53:28;;;;;;;;;;;;;;;16.07;56.37;99597.97;4846511;29;1132;-47
2022/11/23 12:56:03;;;;;;;;;;;;;;;15.95;56.30;99596.75;4868606;29;1100;-48
2022/11/23 12:58:29;;;;;;;;;;;;;;;17.48;54.14;99586.00;4863000;29;1164;-48
2022/11/23 13:00:54;;;;;;;;;;;;;;;16.80;55.45;99591.19;4846128;29;1969;-47